createdAt,value
2017-12-29T00:00:49.826Z,0
2017-12-29T00:01:52.241Z,0
2017-12-29T00:02:54.644Z,0
2017-12-29T00:03:57.344Z,0
2017-12-29T00:04:59.756Z,0
2017-12-29T00:06:02.156Z,0
2017-12-29T00:07:04.871Z,0
2017-12-29T00:08:07.273Z,0
2017-12-29T00:09:09.671Z,0
2017-12-29T00:10:12.080Z,0
2017-12-29T00:11:14.488Z,0
2017-12-29T00:12:16.901Z,0
2017-12-29T00:13:19.302Z,0
2017-12-29T00:14:21.732Z,0
2017-12-29T00:15:24.133Z,0
2017-12-29T00:16:26.536Z,0
2017-12-29T00:17:29.246Z,0
2017-12-29T00:18:31.652Z,0
2017-12-29T00:19:34.351Z,0
2017-12-29T00:20:36.760Z,0
2017-12-29T00:21:39.443Z,0
2017-12-29T00:22:41.851Z,0
2017-12-29T00:23:44.560Z,0
2017-12-29T00:24:46.965Z,0
2017-12-29T00:25:49.671Z,0
2017-12-29T00:26:52.078Z,0
2017-12-29T00:27:54.486Z,0
2017-12-29T00:28:57.185Z,0
2017-12-29T00:29:59.600Z,0
2017-12-29T00:31:01.999Z,0
2017-12-29T00:32:04.420Z,0
2017-12-29T00:33:06.819Z,0
2017-12-29T00:34:09.240Z,0
2017-12-29T00:35:11.645Z,0
2017-12-29T00:36:14.058Z,0
2017-12-29T00:37:16.741Z,0
2017-12-29T00:38:19.150Z,0
2017-12-29T00:39:21.565Z,0
2017-12-29T00:40:23.965Z,0
2017-12-29T00:41:26.377Z,0
2017-12-29T00:42:28.780Z,0
2017-12-29T00:43:31.197Z,0
2017-12-29T00:44:33.595Z,0
2017-12-29T00:45:36.009Z,0
2017-12-29T00:46:38.412Z,0
2017-12-29T00:47:40.834Z,0
2017-12-29T00:48:43.240Z,0
2017-12-29T00:49:45.932Z,0
2017-12-29T00:50:48.342Z,0
2017-12-29T00:51:50.759Z,0
2017-12-29T00:52:53.171Z,0
2017-12-29T00:53:55.579Z,0
2017-12-29T00:54:57.988Z,0
2017-12-29T00:56:00.697Z,0
2017-12-29T00:57:03.113Z,0
2017-12-29T00:58:05.521Z,0
2017-12-29T00:59:07.926Z,0
2017-12-29T01:00:10.335Z,0
2017-12-29T01:01:12.749Z,0
2017-12-29T01:02:15.151Z,0
2017-12-29T01:03:17.568Z,0
2017-12-29T01:04:19.971Z,0
2017-12-29T01:05:22.388Z,0
2017-12-29T01:06:24.831Z,0
2017-12-29T01:07:27.216Z,0
2017-12-29T01:08:29.625Z,0
2017-12-29T01:09:32.030Z,0
2017-12-29T01:10:34.445Z,0
2017-12-29T01:11:36.838Z,0
2017-12-29T01:12:39.822Z,0
2017-12-29T01:13:42.243Z,0
2017-12-29T01:14:44.650Z,0
2017-12-29T01:15:47.064Z,0
2017-12-29T01:16:49.475Z,0
2017-12-29T01:17:52.158Z,0
2017-12-29T01:18:54.580Z,0
2017-12-29T01:19:56.989Z,0
2017-12-29T01:20:59.392Z,0
2017-12-29T01:22:01.813Z,0
2017-12-29T01:23:04.502Z,0
2017-12-29T01:24:06.910Z,0
2017-12-29T01:25:09.327Z,0
2017-12-29T01:26:11.732Z,0
2017-12-29T01:27:14.145Z,0
2017-12-29T01:28:16.549Z,0
2017-12-29T01:29:18.954Z,0
2017-12-29T01:30:21.370Z,0
2017-12-29T01:31:23.784Z,0
2017-12-29T01:32:26.177Z,0
2017-12-29T01:33:28.594Z,0
2017-12-29T01:34:31.287Z,0
2017-12-29T01:35:33.701Z,0
2017-12-29T01:36:36.396Z,0
2017-12-29T01:37:38.808Z,0
2017-12-29T01:38:41.212Z,0
2017-12-29T01:39:43.615Z,0
2017-12-29T01:40:46.025Z,0
2017-12-29T01:41:48.434Z,0
2017-12-29T01:42:50.845Z,0
2017-12-29T01:43:53.253Z,0
2017-12-29T01:44:55.658Z,0
2017-12-29T01:45:58.371Z,0
2017-12-29T01:47:00.778Z,0
2017-12-29T01:48:03.197Z,0
2017-12-29T01:49:05.600Z,0
2017-12-29T01:50:08.602Z,0
2017-12-29T01:51:11.055Z,0
2017-12-29T01:52:13.469Z,0
2017-12-29T01:53:15.871Z,0
2017-12-29T01:54:18.288Z,0
2017-12-29T01:55:20.979Z,0
2017-12-29T01:56:23.386Z,0
2017-12-29T01:57:25.790Z,0
2017-12-29T01:58:28.528Z,0
2017-12-29T01:59:30.941Z,0
2017-12-29T02:00:33.346Z,0
2017-12-29T02:01:35.752Z,0
2017-12-29T02:02:38.455Z,0
2017-12-29T02:03:40.860Z,0
2017-12-29T02:04:43.278Z,0
2017-12-29T02:05:45.680Z,0
2017-12-29T02:06:48.650Z,0
2017-12-29T02:07:51.058Z,0
2017-12-29T02:08:53.461Z,0
2017-12-29T02:09:55.869Z,0
2017-12-29T02:10:58.292Z,0
2017-12-29T02:12:00.700Z,0
2017-12-29T02:13:03.112Z,0
2017-12-29T02:14:05.807Z,0
2017-12-29T02:15:08.224Z,0
2017-12-29T02:16:10.630Z,0
2017-12-29T02:17:13.050Z,0
2017-12-29T02:18:15.444Z,0
2017-12-29T02:19:17.857Z,0
2017-12-29T02:20:20.275Z,0
2017-12-29T02:21:22.684Z,0
2017-12-29T02:22:25.100Z,0
2017-12-29T02:23:27.505Z,0
2017-12-29T02:24:29.914Z,0
2017-12-29T02:25:32.316Z,0
2017-12-29T02:26:34.740Z,0
2017-12-29T02:27:37.424Z,0
2017-12-29T02:28:39.834Z,0
2017-12-29T02:29:42.258Z,0
2017-12-29T02:30:44.656Z,0
2017-12-29T02:31:47.072Z,0
2017-12-29T02:32:49.473Z,0
2017-12-29T02:33:51.879Z,0
2017-12-29T02:34:54.293Z,0
2017-12-29T02:35:56.990Z,0
2017-12-29T02:36:59.397Z,0
2017-12-29T02:38:01.816Z,0
2017-12-29T02:39:04.230Z,0
2017-12-29T02:40:06.640Z,0
2017-12-29T02:41:09.056Z,0
2017-12-29T02:42:11.465Z,0
2017-12-29T02:43:13.865Z,0
2017-12-29T02:44:16.277Z,0
2017-12-29T02:45:18.687Z,0
2017-12-29T02:46:21.091Z,0
2017-12-29T02:47:23.785Z,0
2017-12-29T02:48:26.196Z,0
2017-12-29T02:49:28.615Z,0
2017-12-29T02:50:31.027Z,0
2017-12-29T02:51:33.439Z,0
2017-12-29T02:52:35.843Z,0
2017-12-29T02:53:38.266Z,0
2017-12-29T02:54:40.668Z,0
2017-12-29T02:55:43.075Z,0
2017-12-29T02:56:45.494Z,0
2017-12-29T02:57:47.905Z,0
2017-12-29T02:58:50.320Z,0
2017-12-29T02:59:52.740Z,0
2017-12-29T03:00:55.414Z,0
2017-12-29T03:01:57.823Z,0
2017-12-29T03:03:00.244Z,0
2017-12-29T03:04:02.648Z,0
2017-12-29T03:05:05.054Z,0
2017-12-29T03:06:07.472Z,0
2017-12-29T03:07:09.882Z,0
2017-12-29T03:08:12.285Z,0
2017-12-29T03:09:14.697Z,0
2017-12-29T03:10:17.120Z,0
2017-12-29T03:11:19.536Z,0
2017-12-29T03:12:21.942Z,0
2017-12-29T03:13:24.354Z,0
2017-12-29T03:14:26.766Z,0
2017-12-29T03:15:29.752Z,0
2017-12-29T03:16:32.459Z,0
2017-12-29T03:17:35.133Z,0
2017-12-29T03:18:37.549Z,0
2017-12-29T03:19:39.964Z,0
2017-12-29T03:20:42.374Z,0
2017-12-29T03:21:44.784Z,0
2017-12-29T03:22:47.202Z,0
2017-12-29T03:23:49.606Z,0
2017-12-29T03:24:52.314Z,0
2017-12-29T03:25:54.724Z,0
2017-12-29T03:26:57.126Z,0
2017-12-29T03:27:59.827Z,0
2017-12-29T03:29:02.539Z,0
2017-12-29T03:30:04.947Z,0
2017-12-29T03:31:07.363Z,0
2017-12-29T03:32:09.769Z,0
2017-12-29T03:33:12.179Z,0
2017-12-29T03:34:14.896Z,0
2017-12-29T03:35:17.587Z,0
2017-12-29T03:36:19.987Z,0
2017-12-29T03:37:22.401Z,0
2017-12-29T03:38:24.824Z,0
2017-12-29T03:39:27.517Z,0
2017-12-29T03:40:29.928Z,0
2017-12-29T03:41:32.344Z,0
2017-12-29T03:42:34.749Z,0
2017-12-29T03:43:37.169Z,0
2017-12-29T03:44:39.581Z,0
2017-12-29T03:45:41.980Z,0
2017-12-29T03:46:44.967Z,0
2017-12-29T03:47:47.659Z,0
2017-12-29T03:48:50.070Z,0
2017-12-29T03:49:52.759Z,0
2017-12-29T03:50:55.172Z,0
2017-12-29T03:51:57.580Z,0
2017-12-29T03:53:00.000Z,0
2017-12-29T03:54:02.408Z,0
2017-12-29T03:55:04.820Z,0
2017-12-29T03:56:07.230Z,0
2017-12-29T03:57:09.636Z,0
2017-12-29T03:58:12.041Z,0
2017-12-29T03:59:14.456Z,0
2017-12-29T04:00:16.857Z,0
2017-12-29T04:01:19.268Z,0
2017-12-29T04:02:21.967Z,0
2017-12-29T04:03:24.374Z,0
2017-12-29T04:04:26.775Z,0
2017-12-29T04:05:29.190Z,0
2017-12-29T04:06:31.603Z,0
2017-12-29T04:07:34.286Z,0
2017-12-29T04:08:36.696Z,0
2017-12-29T04:09:39.119Z,0
2017-12-29T04:10:41.522Z,0
2017-12-29T04:11:43.929Z,0
2017-12-29T04:12:46.342Z,0
2017-12-29T04:13:48.751Z,0
2017-12-29T04:14:51.162Z,0
2017-12-29T04:15:53.579Z,0
2017-12-29T04:16:55.970Z,0
2017-12-29T04:17:58.388Z,0
2017-12-29T04:19:00.794Z,0
2017-12-29T04:20:03.206Z,0
2017-12-29T04:21:05.618Z,0
2017-12-29T04:22:08.024Z,0
2017-12-29T04:23:10.435Z,0
2017-12-29T04:24:12.856Z,0
2017-12-29T04:25:15.261Z,0
2017-12-29T04:26:17.665Z,0
2017-12-29T04:27:20.073Z,0
2017-12-29T04:28:22.770Z,0
2017-12-29T04:29:25.480Z,0
2017-12-29T04:30:27.890Z,0
2017-12-29T04:31:30.577Z,0
2017-12-29T04:32:32.991Z,0
2017-12-29T04:33:35.398Z,0
2017-12-29T04:34:37.818Z,0
2017-12-29T04:35:40.221Z,0
2017-12-29T04:36:42.629Z,0
2017-12-29T04:37:45.046Z,0
2017-12-29T04:38:47.450Z,0
2017-12-29T04:39:49.852Z,0
2017-12-29T04:40:52.274Z,0
2017-12-29T04:41:54.685Z,0
2017-12-29T04:42:57.087Z,0
2017-12-29T04:43:59.509Z,0
2017-12-29T04:45:02.194Z,0
2017-12-29T04:46:04.597Z,0
2017-12-29T04:47:07.010Z,0
2017-12-29T04:48:09.416Z,0
2017-12-29T04:49:11.820Z,0
2017-12-29T04:50:14.248Z,0
2017-12-29T04:51:16.647Z,0
2017-12-29T04:52:19.049Z,0
2017-12-29T04:53:21.461Z,0
2017-12-29T04:54:23.867Z,0
2017-12-29T04:55:26.563Z,0
2017-12-29T04:56:28.970Z,0
2017-12-29T04:57:31.360Z,0
2017-12-29T04:58:33.784Z,0
2017-12-29T04:59:36.193Z,0
2017-12-29T05:00:38.602Z,0
2017-12-29T05:01:41.016Z,0
2017-12-29T05:02:43.424Z,0
2017-12-29T05:03:45.838Z,0
2017-12-29T05:04:48.530Z,0
2017-12-29T05:05:50.933Z,0
2017-12-29T05:06:53.345Z,0
2017-12-29T05:07:56.024Z,0
2017-12-29T05:08:58.443Z,0
2017-12-29T05:10:01.425Z,0
2017-12-29T05:11:03.833Z,0
2017-12-29T05:12:06.242Z,0
2017-12-29T05:13:08.654Z,0
2017-12-29T05:14:11.061Z,0
2017-12-29T05:15:13.477Z,0
2017-12-29T05:16:15.871Z,0
2017-12-29T05:17:18.285Z,0
2017-12-29T05:18:20.694Z,0
2017-12-29T05:19:23.110Z,0
2017-12-29T05:20:25.516Z,0
2017-12-29T05:21:27.916Z,0
2017-12-29T05:22:30.320Z,0
2017-12-29T05:23:32.736Z,0
2017-12-29T05:24:35.145Z,0
2017-12-29T05:25:37.560Z,0
2017-12-29T05:26:39.963Z,0
2017-12-29T05:27:42.373Z,0
2017-12-29T05:28:44.787Z,0
2017-12-29T05:29:47.200Z,0
2017-12-29T05:30:49.604Z,0
2017-12-29T05:31:52.022Z,0
2017-12-29T05:32:54.432Z,0
2017-12-29T05:33:56.840Z,0
2017-12-29T05:34:59.242Z,0
2017-12-29T05:36:01.658Z,0
2017-12-29T05:37:04.063Z,0
2017-12-29T05:38:06.755Z,0
2017-12-29T05:39:09.167Z,0
2017-12-29T05:40:11.571Z,0
2017-12-29T05:41:13.982Z,0
2017-12-29T05:42:16.398Z,0
2017-12-29T05:43:18.802Z,0
2017-12-29T05:44:21.213Z,0
2017-12-29T05:45:23.620Z,0
2017-12-29T05:46:26.028Z,0
2017-12-29T05:47:28.438Z,0
2017-12-29T05:48:30.876Z,0
2017-12-29T05:49:33.256Z,0
2017-12-29T05:50:35.953Z,0
2017-12-29T05:51:38.358Z,0
2017-12-29T05:52:40.767Z,0
2017-12-29T05:53:43.470Z,0
2017-12-29T05:54:45.882Z,0
2017-12-29T05:55:48.287Z,0
2017-12-29T05:56:50.708Z,0
2017-12-29T05:57:53.116Z,0
2017-12-29T05:58:55.526Z,0
2017-12-29T05:59:57.934Z,0
2017-12-29T06:01:00.625Z,0
2017-12-29T06:02:03.028Z,0
2017-12-29T06:03:05.444Z,0
2017-12-29T06:04:08.118Z,0
2017-12-29T06:05:10.527Z,0
2017-12-29T06:06:12.953Z,0
2017-12-29T06:07:15.640Z,0
2017-12-29T06:08:18.333Z,0
2017-12-29T06:09:20.741Z,0
2017-12-29T06:10:23.154Z,0
2017-12-29T06:11:25.556Z,0
2017-12-29T06:12:27.973Z,0
2017-12-29T06:13:30.377Z,0
2017-12-29T06:14:32.784Z,0
2017-12-29T06:15:35.203Z,0
2017-12-29T06:16:37.921Z,0
2017-12-29T06:17:40.335Z,0
2017-12-29T06:18:43.029Z,0
2017-12-29T06:19:45.439Z,0
2017-12-29T06:20:47.864Z,0
2017-12-29T06:21:50.549Z,0
2017-12-29T06:22:52.956Z,0
2017-12-29T06:23:55.365Z,0
2017-12-29T06:24:57.788Z,0
2017-12-29T06:26:00.470Z,0
2017-12-29T06:27:03.174Z,0
2017-12-29T06:28:05.859Z,0
2017-12-29T06:29:08.271Z,0
2017-12-29T06:30:10.691Z,0
2017-12-29T06:31:13.097Z,0
2017-12-29T06:32:15.509Z,0
2017-12-29T06:33:17.915Z,0
2017-12-29T06:34:20.329Z,0
2017-12-29T06:35:22.740Z,0
2017-12-29T06:36:25.433Z,0
2017-12-29T06:37:27.847Z,0
2017-12-29T06:38:30.250Z,0
2017-12-29T06:39:32.643Z,0
2017-12-29T06:40:35.057Z,0
2017-12-29T06:41:37.467Z,0
2017-12-29T06:42:39.884Z,0
2017-12-29T06:43:42.285Z,0
2017-12-29T06:44:44.697Z,0
2017-12-29T06:45:47.104Z,0
2017-12-29T06:46:49.519Z,0
2017-12-29T06:47:51.927Z,0
2017-12-29T06:48:54.334Z,0
2017-12-29T06:49:56.748Z,0
2017-12-29T06:50:59.158Z,0
2017-12-29T06:52:01.580Z,0
2017-12-29T06:53:04.268Z,0
2017-12-29T06:54:06.666Z,0
2017-12-29T06:55:09.574Z,0
2017-12-29T06:56:11.986Z,0
2017-12-29T06:57:14.397Z,0
2017-12-29T06:58:16.805Z,0
2017-12-29T06:59:19.215Z,0
2017-12-29T07:00:21.619Z,0
2017-12-29T07:01:24.044Z,0
2017-12-29T07:02:26.446Z,0
2017-12-29T07:03:28.914Z,0
2017-12-29T07:04:31.321Z,0
2017-12-29T07:05:33.992Z,0
2017-12-29T07:06:36.701Z,0
2017-12-29T07:07:39.113Z,0
2017-12-29T07:08:41.519Z,0
2017-12-29T07:09:43.934Z,0
2017-12-29T07:10:46.336Z,0
2017-12-29T07:11:48.762Z,0
2017-12-29T07:12:51.159Z,0
2017-12-29T07:13:53.576Z,0
2017-12-29T07:14:55.997Z,0
2017-12-29T07:15:58.397Z,0
2017-12-29T07:17:01.091Z,0
2017-12-29T07:18:03.505Z,0
2017-12-29T07:19:06.196Z,0
2017-12-29T07:20:08.930Z,0
2017-12-29T07:21:11.614Z,0
2017-12-29T07:22:14.022Z,0
2017-12-29T07:23:16.428Z,0
2017-12-29T07:24:18.850Z,0
2017-12-29T07:25:21.249Z,0
2017-12-29T07:26:23.666Z,1
2017-12-29T07:27:26.058Z,1
2017-12-29T07:28:28.474Z,1
2017-12-29T07:29:30.891Z,1
2017-12-29T07:30:33.309Z,1
2017-12-29T07:31:36.018Z,1
2017-12-29T07:32:38.428Z,2
2017-12-29T07:33:40.832Z,2
2017-12-29T07:34:43.248Z,2
2017-12-29T07:35:45.659Z,2
2017-12-29T07:36:48.673Z,3
2017-12-29T07:37:51.081Z,3
2017-12-29T07:38:53.500Z,3
2017-12-29T07:39:55.917Z,3
2017-12-29T07:40:58.621Z,2
2017-12-29T07:42:01.311Z,1
2017-12-29T07:43:03.719Z,1
2017-12-29T07:44:06.148Z,2
2017-12-29T07:45:08.559Z,3
2017-12-29T07:46:10.966Z,4
2017-12-29T07:47:13.376Z,4
2017-12-29T07:48:15.792Z,5
2017-12-29T07:49:18.489Z,4
2017-12-29T07:50:20.906Z,3
2017-12-29T07:51:23.317Z,3
2017-12-29T07:52:25.728Z,2
2017-12-29T07:53:28.144Z,2
2017-12-29T07:54:30.559Z,2
2017-12-29T07:55:32.963Z,2
2017-12-29T07:56:35.377Z,4
2017-12-29T07:57:37.787Z,4
2017-12-29T07:58:40.198Z,5
2017-12-29T07:59:42.608Z,4
2017-12-29T08:00:45.022Z,5
2017-12-29T08:01:47.429Z,5
2017-12-29T08:02:49.850Z,5
2017-12-29T08:03:52.258Z,6
2017-12-29T08:04:54.664Z,6
2017-12-29T08:05:57.363Z,8
2017-12-29T08:06:59.770Z,10
2017-12-29T08:08:02.171Z,12
2017-12-29T08:09:04.587Z,12
2017-12-29T08:10:06.992Z,11
2017-12-29T08:11:09.408Z,8
2017-12-29T08:12:11.810Z,5
2017-12-29T08:13:14.226Z,4
2017-12-29T08:14:16.630Z,3
2017-12-29T08:15:19.047Z,4
2017-12-29T08:16:21.451Z,5
2017-12-29T08:17:23.865Z,5
2017-12-29T08:18:26.289Z,5
2017-12-29T08:19:28.688Z,6
2017-12-29T08:20:31.674Z,6
2017-12-29T08:21:34.088Z,7
2017-12-29T08:22:36.503Z,8
2017-12-29T08:23:38.908Z,10
2017-12-29T08:24:41.326Z,12
2017-12-29T08:25:43.737Z,9
2017-12-29T08:26:46.154Z,9
2017-12-29T08:27:48.849Z,10
2017-12-29T08:28:51.531Z,11
2017-12-29T08:29:53.948Z,9
2017-12-29T08:30:56.359Z,7
2017-12-29T08:31:58.766Z,8
2017-12-29T08:33:01.175Z,9
2017-12-29T08:34:03.603Z,10
2017-12-29T08:35:06.024Z,10
2017-12-29T08:36:09.069Z,9
2017-12-29T08:37:11.762Z,9
2017-12-29T08:38:14.465Z,6
2017-12-29T08:39:17.164Z,7
2017-12-29T08:40:19.580Z,9
2017-12-29T08:41:22.557Z,10
2017-12-29T08:42:25.254Z,10
2017-12-29T08:43:27.678Z,13
2017-12-29T08:44:30.364Z,16
2017-12-29T08:45:32.781Z,17
2017-12-29T08:46:35.188Z,20
2017-12-29T08:47:37.606Z,17
2017-12-29T08:48:40.011Z,18
2017-12-29T08:49:42.799Z,19
2017-12-29T08:50:45.483Z,20
2017-12-29T08:51:48.178Z,19
2017-12-29T08:52:50.611Z,16
2017-12-29T08:53:53.016Z,14
2017-12-29T08:54:55.431Z,11
2017-12-29T08:55:57.847Z,9
2017-12-29T08:57:00.270Z,9
2017-12-29T08:58:02.684Z,8
2017-12-29T08:59:05.182Z,8
2017-12-29T09:00:07.549Z,9
2017-12-29T09:01:09.961Z,9
2017-12-29T09:02:12.383Z,8
2017-12-29T09:03:14.795Z,8
2017-12-29T09:04:17.203Z,9
2017-12-29T09:05:19.615Z,9
2017-12-29T09:06:22.316Z,11
2017-12-29T09:07:24.722Z,12
2017-12-29T09:08:27.142Z,11
2017-12-29T09:09:29.553Z,13
2017-12-29T09:10:31.963Z,14
2017-12-29T09:11:34.370Z,15
2017-12-29T09:12:36.787Z,18
2017-12-29T09:13:39.185Z,18
2017-12-29T09:14:41.613Z,15
2017-12-29T09:15:44.020Z,14
2017-12-29T09:16:46.422Z,14
2017-12-29T09:17:48.847Z,16
2017-12-29T09:18:51.532Z,18
2017-12-29T09:19:53.945Z,23
2017-12-29T09:21:15.558Z,22
2017-12-29T09:22:17.961Z,20
2017-12-29T09:23:20.651Z,22
2017-12-29T09:24:23.073Z,23
2017-12-29T09:25:25.478Z,23
2017-12-29T09:26:27.895Z,22
2017-12-29T09:27:30.311Z,17
2017-12-29T09:28:32.722Z,18
2017-12-29T09:29:35.125Z,17
2017-12-29T09:30:37.560Z,14
2017-12-29T09:31:39.957Z,15
2017-12-29T09:32:42.380Z,14
2017-12-29T09:33:44.800Z,11
2017-12-29T09:34:47.206Z,12
2017-12-29T09:35:49.919Z,13
2017-12-29T09:36:52.328Z,12
2017-12-29T09:37:55.018Z,11
2017-12-29T09:38:57.434Z,12
2017-12-29T09:40:00.126Z,14
2017-12-29T09:41:02.535Z,13
2017-12-29T09:42:04.953Z,13
2017-12-29T09:43:07.349Z,15
2017-12-29T09:44:09.768Z,14
2017-12-29T09:45:12.458Z,14
2017-12-29T09:46:14.873Z,17
2017-12-29T09:47:17.276Z,20
2017-12-29T09:48:19.685Z,18
2017-12-29T09:49:22.661Z,19
2017-12-29T09:50:25.078Z,17
2017-12-29T09:51:27.488Z,15
2017-12-29T09:52:29.897Z,15
2017-12-29T09:53:32.587Z,15
2017-12-29T09:54:34.996Z,13
2017-12-29T09:55:40.344Z,15
2017-12-29T09:56:44.952Z,17
2017-12-29T09:57:47.768Z,16
2017-12-29T09:58:51.666Z,16
2017-12-29T09:59:55.047Z,14
2017-12-29T10:00:57.459Z,17
2017-12-29T10:01:59.868Z,17
2017-12-29T10:03:02.285Z,19
2017-12-29T10:04:04.708Z,27
2017-12-29T10:05:07.122Z,27
2017-12-29T10:06:09.533Z,27
2017-12-29T10:07:11.941Z,29
2017-12-29T10:08:14.353Z,38
2017-12-29T10:09:16.757Z,42
2017-12-29T10:10:19.166Z,38
2017-12-29T10:11:21.569Z,31
2017-12-29T10:12:23.975Z,32
2017-12-29T10:13:26.386Z,29
2017-12-29T10:14:28.792Z,29
2017-12-29T10:15:31.205Z,29
2017-12-29T10:16:33.630Z,27
2017-12-29T10:17:36.042Z,28
2017-12-29T10:18:38.458Z,32
2017-12-29T10:19:40.877Z,34
2017-12-29T10:20:43.279Z,34
2017-12-29T10:21:45.707Z,35
2017-12-29T10:22:48.113Z,35
2017-12-29T10:23:50.510Z,31
2017-12-29T10:24:52.924Z,25
2017-12-29T10:25:55.328Z,21
2017-12-29T10:26:57.740Z,23
2017-12-29T10:28:00.150Z,24
2017-12-29T10:29:54.159Z,24
2017-12-29T10:30:56.566Z,28
2017-12-29T10:31:59.030Z,24
2017-12-29T10:33:01.452Z,22
2017-12-29T10:34:04.162Z,21
2017-12-29T10:35:06.576Z,20
2017-12-29T10:36:08.992Z,19
2017-12-29T10:37:11.613Z,19
2017-12-29T10:38:14.307Z,16
2017-12-29T10:39:16.700Z,17
2017-12-29T10:40:19.121Z,18
2017-12-29T10:41:21.522Z,20
2017-12-29T10:42:24.510Z,19
2017-12-29T10:43:26.924Z,19
2017-12-29T10:44:29.337Z,20
2017-12-29T10:45:31.742Z,24
2017-12-29T10:46:34.162Z,24
2017-12-29T10:47:36.874Z,25
2017-12-29T10:48:39.296Z,26
2017-12-29T10:49:41.985Z,26
2017-12-29T10:50:44.401Z,29
2017-12-29T10:51:46.813Z,31
2017-12-29T10:52:49.229Z,25
2017-12-29T10:53:51.631Z,23
2017-12-29T10:54:54.039Z,23
2017-12-29T10:55:56.446Z,30
2017-12-29T10:56:58.857Z,39
2017-12-29T10:58:01.276Z,31
2017-12-29T10:59:03.684Z,40
2017-12-29T11:00:06.360Z,43
2017-12-29T11:01:08.778Z,40
2017-12-29T11:02:11.191Z,38
2017-12-29T11:03:13.608Z,45
2017-12-29T11:04:16.012Z,61
2017-12-29T11:05:18.438Z,76
2017-12-29T11:06:20.843Z,98
2017-12-29T11:07:23.251Z,100
2017-12-29T11:08:25.669Z,81
2017-12-29T11:09:28.076Z,85
2017-12-29T11:10:30.492Z,109
2017-12-29T11:11:32.904Z,79
2017-12-29T11:12:35.313Z,72
2017-12-29T11:13:37.729Z,70
2017-12-29T11:14:40.440Z,68
2017-12-29T11:15:42.852Z,69
2017-12-29T11:16:45.258Z,68
2017-12-29T11:17:47.676Z,64
2017-12-29T11:18:50.085Z,64
2017-12-29T11:19:52.492Z,60
2017-12-29T11:20:54.910Z,60
2017-12-29T11:21:57.312Z,59
2017-12-29T11:22:59.726Z,57
2017-12-29T11:24:02.146Z,56
2017-12-29T11:25:04.555Z,52
2017-12-29T11:26:07.005Z,42
2017-12-29T11:27:09.381Z,31
2017-12-29T11:28:11.827Z,31
2017-12-29T11:29:14.203Z,28
2017-12-29T11:30:16.618Z,24
2017-12-29T11:31:19.009Z,29
2017-12-29T11:32:21.427Z,33
2017-12-29T11:33:23.838Z,33
2017-12-29T11:34:26.245Z,34
2017-12-29T11:35:28.657Z,30
2017-12-29T11:36:31.065Z,39
2017-12-29T11:37:33.480Z,45
2017-12-29T11:38:35.887Z,44
2017-12-29T11:39:38.307Z,46
2017-12-29T11:40:40.716Z,46
2017-12-29T11:41:43.135Z,42
2017-12-29T11:42:45.553Z,36
2017-12-29T11:43:47.963Z,34
2017-12-29T11:44:50.378Z,31
2017-12-29T11:45:53.072Z,36
2017-12-29T11:46:55.476Z,40
2017-12-29T11:47:58.180Z,38
2017-12-29T11:49:00.872Z,36
2017-12-29T11:50:03.285Z,36
2017-12-29T11:51:05.689Z,40
2017-12-29T11:52:08.108Z,41
2017-12-29T11:53:10.512Z,43
2017-12-29T11:54:13.219Z,46
2017-12-29T11:55:15.615Z,52
2017-12-29T11:56:18.321Z,52
2017-12-29T11:57:20.740Z,53
2017-12-29T11:58:23.151Z,51
2017-12-29T11:59:25.560Z,51
2017-12-29T12:00:27.975Z,50
2017-12-29T12:01:30.663Z,48
2017-12-29T12:02:33.072Z,42
2017-12-29T12:03:35.477Z,42
2017-12-29T12:04:38.194Z,41
2017-12-29T12:05:40.594Z,41
2017-12-29T12:06:42.995Z,41
2017-12-29T12:07:45.698Z,39
2017-12-29T12:08:48.113Z,41
2017-12-29T12:09:50.527Z,44
2017-12-29T12:10:52.944Z,46
2017-12-29T12:11:55.349Z,47
2017-12-29T12:12:57.762Z,48
2017-12-29T12:14:00.191Z,48
2017-12-29T12:15:02.592Z,48
2017-12-29T12:16:05.001Z,48
2017-12-29T12:17:07.410Z,48
2017-12-29T12:18:09.828Z,47
2017-12-29T12:19:12.243Z,44
2017-12-29T12:20:14.656Z,41
2017-12-29T12:21:17.056Z,41
2017-12-29T12:22:19.758Z,41
2017-12-29T12:23:22.173Z,41
2017-12-29T12:24:24.592Z,40
2017-12-29T12:25:27.004Z,39
2017-12-29T12:26:29.408Z,39
2017-12-29T12:27:31.816Z,39
2017-12-29T12:28:34.526Z,40
2017-12-29T12:29:36.931Z,41
2017-12-29T12:30:39.343Z,42
2017-12-29T12:31:41.747Z,44
2017-12-29T12:32:44.162Z,46
2017-12-29T12:33:46.583Z,49
2017-12-29T12:34:49.275Z,53
2017-12-29T12:35:51.687Z,55
2017-12-29T12:36:54.096Z,57
2017-12-29T12:37:56.503Z,69
2017-12-29T12:38:58.926Z,60
2017-12-29T12:40:01.328Z,66
2017-12-29T12:41:03.754Z,54
2017-12-29T12:42:06.152Z,54
2017-12-29T12:43:08.563Z,51
2017-12-29T12:44:10.979Z,50
2017-12-29T12:45:13.392Z,67
2017-12-29T12:46:15.805Z,76
2017-12-29T12:47:18.218Z,64
2017-12-29T12:48:20.631Z,61
2017-12-29T12:49:23.034Z,62
2017-12-29T12:50:25.449Z,60
2017-12-29T12:51:27.853Z,52
2017-12-29T12:52:30.269Z,46
2017-12-29T12:53:32.967Z,41
2017-12-29T12:54:35.373Z,39
2017-12-29T12:55:37.793Z,40
2017-12-29T12:56:40.481Z,42
2017-12-29T12:57:42.900Z,46
2017-12-29T12:58:45.599Z,51
2017-12-29T12:59:48.006Z,53
2017-12-29T13:00:50.417Z,48
2017-12-29T13:01:52.822Z,50
2017-12-29T13:02:55.234Z,45
2017-12-29T13:03:57.659Z,43
2017-12-29T13:05:00.346Z,40
2017-12-29T13:06:02.764Z,44
2017-12-29T13:07:05.173Z,38
2017-12-29T13:08:07.594Z,36
2017-12-29T13:09:10.286Z,34
2017-12-29T13:10:12.697Z,34
2017-12-29T13:11:15.102Z,34
2017-12-29T13:12:17.520Z,33
2017-12-29T13:13:19.940Z,34
2017-12-29T13:14:22.643Z,34
2017-12-29T13:15:25.062Z,37
2017-12-29T13:16:27.461Z,37
2017-12-29T13:17:29.874Z,34
2017-12-29T13:18:32.863Z,31
2017-12-29T13:19:35.554Z,29
2017-12-29T13:20:37.970Z,29
2017-12-29T13:21:40.387Z,29
2017-12-29T13:22:42.807Z,30
2017-12-29T13:23:45.501Z,31
2017-12-29T13:24:47.915Z,31
2017-12-29T13:25:50.314Z,28
2017-12-29T13:26:52.737Z,28
2017-12-29T13:27:55.437Z,30
2017-12-29T13:28:57.854Z,30
2017-12-29T13:30:00.556Z,29
2017-12-29T13:31:02.969Z,27
2017-12-29T13:32:05.378Z,25
2017-12-29T13:33:07.791Z,24
2017-12-29T13:34:10.217Z,24
2017-12-29T13:35:12.900Z,23
2017-12-29T13:36:15.314Z,22
2017-12-29T13:37:17.736Z,21
2017-12-29T13:38:20.142Z,24
2017-12-29T13:39:22.776Z,26
2017-12-29T13:40:25.415Z,28
2017-12-29T13:41:27.829Z,28
2017-12-29T13:42:30.243Z,28
2017-12-29T13:43:32.717Z,28
2017-12-29T13:44:35.111Z,28
2017-12-29T13:45:37.618Z,27
2017-12-29T13:46:40.648Z,26
2017-12-29T13:47:43.055Z,26
2017-12-29T13:48:45.480Z,27
2017-12-29T13:49:47.885Z,29
2017-12-29T13:50:50.297Z,31
2017-12-29T13:51:52.725Z,29
2017-12-29T13:52:55.132Z,27
2017-12-29T13:53:57.539Z,27
2017-12-29T13:55:00.005Z,27
2017-12-29T13:56:02.701Z,26
2017-12-29T13:57:05.409Z,27
2017-12-29T13:58:08.104Z,26
2017-12-29T13:59:10.514Z,25
2017-12-29T14:00:12.928Z,23
2017-12-29T14:01:15.348Z,22
2017-12-29T14:02:17.755Z,21
2017-12-29T14:03:20.163Z,22
2017-12-29T14:04:22.597Z,22
2017-12-29T14:05:25.009Z,21
2017-12-29T14:06:27.427Z,20
2017-12-29T14:07:29.840Z,21
2017-12-29T14:08:32.250Z,21
2017-12-29T14:09:34.667Z,20
2017-12-29T14:10:37.081Z,21
2017-12-29T14:11:39.520Z,21
2017-12-29T14:12:42.650Z,19
2017-12-29T14:13:45.047Z,18
2017-12-29T14:14:47.456Z,18
2017-12-29T14:15:50.162Z,18
2017-12-29T14:16:52.563Z,17
2017-12-29T14:17:54.972Z,16
2017-12-29T14:18:57.388Z,16
2017-12-29T14:20:00.090Z,16
2017-12-29T14:21:02.514Z,15
2017-12-29T14:22:04.924Z,15
2017-12-29T14:23:07.614Z,15
2017-12-29T14:24:10.032Z,14
2017-12-29T14:25:12.730Z,14
2017-12-29T14:26:15.146Z,13
2017-12-29T14:27:17.557Z,13
2017-12-29T14:28:19.968Z,12
2017-12-29T14:29:22.389Z,12
2017-12-29T14:30:24.795Z,11
2017-12-29T14:31:27.494Z,11
2017-12-29T14:32:29.902Z,10
2017-12-29T14:33:32.307Z,10
2017-12-29T14:34:34.727Z,10
2017-12-29T14:35:37.414Z,10
2017-12-29T14:36:39.830Z,9
2017-12-29T14:37:42.238Z,9
2017-12-29T14:38:44.648Z,8
2017-12-29T14:39:47.348Z,8
2017-12-29T14:40:49.753Z,7
2017-12-29T14:41:52.165Z,7
2017-12-29T14:42:54.577Z,7
2017-12-29T14:43:56.977Z,6
2017-12-29T14:44:59.395Z,6
2017-12-29T14:46:01.812Z,6
2017-12-29T14:47:04.224Z,6
2017-12-29T14:48:06.637Z,5
2017-12-29T14:49:09.044Z,5
2017-12-29T14:50:11.451Z,5
2017-12-29T14:51:13.878Z,5
2017-12-29T14:52:16.572Z,4
2017-12-29T14:53:18.992Z,4
2017-12-29T14:54:21.688Z,4
2017-12-29T14:55:24.102Z,4
2017-12-29T14:56:26.800Z,3
2017-12-29T14:57:29.214Z,3
2017-12-29T14:58:31.614Z,3
2017-12-29T14:59:34.035Z,3
2017-12-29T15:00:36.465Z,3
2017-12-29T15:01:38.879Z,2
2017-12-29T15:02:41.305Z,2
2017-12-29T15:03:43.728Z,2
2017-12-29T15:04:46.427Z,2
2017-12-29T15:05:48.853Z,2
2017-12-29T15:06:51.842Z,2
2017-12-29T15:07:54.241Z,1
2017-12-29T15:08:56.950Z,1
2017-12-29T15:09:59.372Z,1
2017-12-29T15:11:02.071Z,1
2017-12-29T15:12:04.765Z,1